Time;durP1;ratioP1;P1;durP2;ratioP2;P2;SDS_P1;SDS_P2;PMS_P1;PMS_P2;Temp;Humidity;BMP_temperature;BMP_pressure;BME280_temperature;BME280_humidity;BME280_pressure;Samples;Min_cycle;Max_cycle;Signal;HPM_P1;HPM_P2
2023/01/02 00:00:37;;;;;;;6.38;3.45;;;;;;;-140.72;100.00;53084.88;5127059;27;20059;-71
2023/01/02 00:03:03;;;;;;;8.70;3.80;;;;;;;-140.72;100.00;53072.69;5128228;27;20091;-69
2023/01/02 00:05:28;;;;;;;4.78;3.28;;;;;;;-140.72;100.00;53074.72;5127691;27;20019;-73
2023/01/02 00:07:54;;;;;;;9.52;4.28;;;;;;;-140.72;100.00;53070.69;5129279;27;20512;-69
2023/01/02 00:10:19;;;;;;;5.05;3.05;;;;;;;-140.72;100.00;53070.69;5125047;27;20464;-69
2023/01/02 00:12:44;;;;;;;5.40;3.58;;;;;;;-140.72;100.00;53084.88;5126094;27;20019;-69
2023/01/02 00:15:10;;;;;;;7.10;4.07;;;;;;;-140.72;100.00;53097.06;5129305;27;20103;-72
2023/01/02 00:17:35;;;;;;;6.97;3.47;;;;;;;-140.72;100.00;53060.53;5125301;27;20011;-73
2023/01/02 00:20:01;;;;;;;5.43;2.78;;;;;;;-140.72;100.00;53084.88;5126091;27;20027;-69
2023/01/02 00:22:26;;;;;;;4.00;2.95;;;;;;;-140.72;100.00;53072.69;5128795;27;20103;-72
2023/01/02 00:24:52;;;;;;;8.13;3.40;;;;;;;-140.72;100.00;53064.59;5125729;27;20027;-72
2023/01/02 00:27:17;;;;;;;5.90;2.97;;;;;;;-140.72;100.00;53097.06;5128647;27;20030;-69
2023/01/02 00:29:43;;;;;;;7.30;4.05;;;;;;;-140.72;100.00;53099.09;5126014;27;20409;-72
2023/01/02 00:32:08;;;;;;;6.35;3.38;;;;;;;-140.72;100.00;53084.88;5128434;27;20026;-72
2023/01/02 00:34:33;;;;;;;4.95;3.38;;;;;;;-140.72;100.00;53076.75;5127965;28;20047;-71
2023/01/02 00:36:59;;;;;;;6.15;3.72;;;;;;;-140.72;100.00;53088.94;5129442;28;20019;-69
2023/01/02 00:39:24;;;;;;;10.18;4.43;;;;;;;-140.72;100.00;53082.84;5128401;28;20023;-71
2023/01/02 00:41:49;;;;;;;8.18;3.65;;;;;;;-140.72;100.00;53082.84;5128372;28;20022;-70
2023/01/02 00:44:15;;;;;;;7.03;3.35;;;;;;;-140.72;100.00;53064.59;5127020;28;20037;-69
2023/01/02 00:46:40;;;;;;;7.22;4.03;;;;;;;-140.72;100.00;53084.88;5127263;28;20084;-72
2023/01/02 00:49:05;;;;;;;5.30;4.10;;;;;;;-140.72;100.00;53078.78;5128974;28;20019;-69
2023/01/02 00:51:31;;;;;;;6.65;3.90;;;;;;;-140.72;100.00;53062.56;5126354;28;20019;-69
2023/01/02 00:53:56;;;;;;;6.57;3.90;;;;;;;-140.72;100.00;53082.84;5127968;28;20027;-71
2023/01/02 00:56:21;;;;;;;6.35;4.15;;;;;;;-140.72;100.00;53052.41;5127895;28;20406;-69
2023/01/02 00:58:47;;;;;;;6.85;4.45;;;;;;;-140.72;100.00;53076.75;5125297;28;20050;-69
2023/01/02 01:01:12;;;;;;;5.85;4.13;;;;;;;-140.72;100.00;53093.00;5127742;28;20064;-69
2023/01/02 01:03:38;;;;;;;9.18;4.03;;;;;;;-140.72;100.00;53107.19;5126943;28;20016;-70
2023/01/02 01:06:11;;;;;;;8.27;3.75;;;;;;;-140.72;100.00;53105.19;5123793;28;20016;-69
2023/01/02 01:08:37;;;;;;;9.40;4.82;;;;;;;-140.72;100.00;53115.31;5127514;28;20102;-70
2023/01/02 01:11:07;;;;;;;7.57;4.00;;;;;;;-140.72;100.00;53084.88;5129711;28;20076;-69
2023/01/02 01:13:32;;;;;;;10.93;4.60;;;;;;;-140.72;100.00;53060.53;5119629;28;20027;-69
2023/01/02 01:16:13;;;;;;;6.10;3.88;;;;;;;-140.72;100.00;53139.69;5117991;28;20512;-72
2023/01/02 01:18:39;;;;;;;8.48;4.15;;;;;;;-140.72;100.00;53109.22;5117716;28;20027;-71
2023/01/02 01:21:06;;;;;;;7.47;4.55;;;;;;;-140.72;100.00;53072.69;5117712;28;20035;-72
2023/01/02 01:23:31;;;;;;;7.15;4.75;;;;;;;-140.72;100.00;53095.03;5125967;27;20015;-69
2023/01/02 01:25:57;;;;;;;4.30;3.45;;;;;;;-140.72;100.00;53090.97;5124879;27;20096;-69
2023/01/02 01:28:22;;;;;;;4.80;3.30;;;;;;;-140.72;100.00;53088.94;5132949;27;20374;-69
2023/01/02 01:30:47;;;;;;;6.07;4.15;;;;;;;-140.72;100.00;53099.09;5132060;27;20098;-69
2023/01/02 01:33:13;;;;;;;10.77;4.63;;;;;;;-140.72;100.00;53078.78;5126448;27;20257;-69
2023/01/02 01:35:38;;;;;;;7.60;3.28;;;;;;;-140.72;100.00;53078.78;5127934;27;20023;-69
2023/01/02 01:38:03;;;;;;;7.13;3.92;;;;;;;-140.72;100.00;53109.22;5121797;27;20023;-69
2023/01/02 01:40:36;;;;;;;6.32;3.83;;;;;;;-140.72;100.00;53068.66;5129829;27;20101;-73
2023/01/02 01:43:01;;;;;;;7.90;4.00;;;;;;;-140.72;100.00;53115.31;5127209;27;20015;-70
2023/01/02 01:45:27;;;;;;;5.93;3.47;;;;;;;-140.72;100.00;53084.88;5133047;27;20114;-69
2023/01/02 01:47:55;;;;;;;7.25;4.00;;;;;;;-140.72;100.00;53125.47;5126530;27;20023;-72
2023/01/02 01:50:33;;;;;;;5.32;3.42;;;;;;;-140.72;100.00;53082.84;5132676;27;20102;-68
2023/01/02 01:53:02;;;;;;;6.13;4.00;;;;;;;-140.72;100.00;53046.31;5122260;27;20066;-72
2023/01/02 01:55:35;;;;;;;5.15;3.90;;;;;;;-140.72;100.00;53078.78;5129144;27;20031;-70
2023/01/02 01:58:07;;;;;;;4.30;2.70;;;;;;;-140.72;100.00;53080.81;5116121;27;20042;-70
2023/01/02 02:00:33;;;;;;;7.45;3.53;;;;;;;-140.72;100.00;53072.69;5129215;27;20027;-70
2023/01/02 02:03:07;;;;;;;7.40;4.25;;;;;;;-140.72;100.00;53076.75;5120450;27;20019;-71
2023/01/02 02:05:33;;;;;;;5.53;3.67;;;;;;;-140.72;100.00;53086.91;5131589;27;20114;-69
2023/01/02 02:08:05;;;;;;;8.77;3.42;;;;;;;-140.72;100.00;53066.63;5128200;27;20106;-69
2023/01/02 02:10:31;;;;;;;6.30;3.90;;;;;;;-140.72;100.00;53093.00;5122305;27;20019;-72
2023/01/02 02:12:57;;;;;;;8.57;3.55;;;;;;;-140.72;100.00;53064.59;5130662;27;20111;-69
2023/01/02 02:15:30;;;;;;;5.13;3.45;;;;;;;-140.72;100.00;53080.81;5115535;27;20023;-72
2023/01/02 02:18:07;;;;;;;13.20;3.88;;;;;;;-140.72;100.00;53099.09;5128449;27;20019;-70
2023/01/02 02:20:50;;;;;;;9.75;3.80;;;;;;;-140.72;100.00;53066.63;5113124;27;20028;-70
2023/01/02 02:23:44;;;;;;;4.90;3.75;;;;;;;-140.72;100.00;53044.28;5124293;27;20102;-69
2023/01/02 02:26:31;;;;;;;5.40;3.35;;;;;;;-140.72;100.00;53082.84;5119286;27;20459;-69
2023/01/02 02:28:59;;;;;;;12.95;3.90;;;;;;;-140.72;100.00;53068.66;5127470;27;20045;-69
2023/01/02 02:31:52;;;;;;;11.38;3.63;;;;;;;-140.72;100.00;53103.16;5131420;27;20042;-71
2023/01/02 02:34:25;;;;;;;6.90;3.75;;;;;;;-140.72;100.00;53103.16;5114392;27;20058;-68
2023/01/02 02:37:11;;;;;;;10.45;4.45;;;;;;;-140.72;100.00;53058.50;5126907;27;20034;-68
2023/01/02 02:39:52;;;;;;;11.93;3.92;;;;;;;-140.72;100.00;53074.72;5122407;27;20022;-70
2023/01/02 02:42:37;;;;;;;10.80;3.70;;;;;;;-140.72;100.00;53056.47;5126481;27;20106;-68
2023/01/02 02:45:22;;;;;;;5.57;3.58;;;;;;;-140.72;100.00;53095.03;5120034;27;20020;-68
2023/01/02 02:48:13;;;;;;;8.15;3.45;;;;;;;-140.72;100.00;53072.69;5123868;27;20030;-69
2023/01/02 02:50:47;;;;;;;7.35;3.35;;;;;;;-140.72;100.00;53080.81;5107839;27;20043;-69
2023/01/02 02:53:25;;;;;;;7.18;3.00;;;;;;;-140.72;100.00;53048.34;5130040;27;20046;-69
2023/01/02 02:55:53;;;;;;;8.50;3.70;;;;;;;-140.72;100.00;53064.59;5119408;27;20474;-68
2023/01/02 02:58:22;;;;;;;8.57;3.45;;;;;;;-140.72;100.00;53074.72;5116034;27;20389;-71
2023/01/02 03:00:48;;;;;;;5.07;3.22;;;;;;;-140.72;100.00;53088.94;5131234;27;20451;-69
2023/01/02 03:03:22;;;;;;;4.68;3.10;;;;;;;-140.72;100.00;53076.75;5113258;27;20027;-71
2023/01/02 03:06:03;;;;;;;6.03;3.35;;;;;;;-140.72;100.00;53076.75;5124304;27;20508;-69
2023/01/02 03:08:50;;;;;;;4.18;3.40;;;;;;;-140.72;100.00;53082.84;5111624;27;20030;-69
2023/01/02 03:11:15;;;;;;;6.03;3.45;;;;;;;-140.72;100.00;53062.56;5129247;27;20387;-69
2023/01/02 03:14:01;;;;;;;9.43;3.15;;;;;;;-140.72;100.00;53032.13;5128015;27;20045;-69
2023/01/02 03:16:35;;;;;;;10.45;3.67;;;;;;;-140.72;100.00;53080.81;5129860;27;20019;-68
2023/01/02 03:19:08;;;;;;;5.80;3.65;;;;;;;-140.72;100.00;53082.84;5130009;27;20432;-70
2023/01/02 03:21:35;;;;;;;6.70;3.42;;;;;;;-140.72;100.00;53064.59;5126639;27;20023;-69
2023/01/02 03:24:06;;;;;;;6.88;3.45;;;;;;;-140.72;100.00;53107.19;5128575;27;20098;-69
2023/01/02 03:26:34;;;;;;;5.15;3.78;;;;;;;-140.72;100.00;53072.69;5125223;27;20026;-70
2023/01/02 03:29:05;;;;;;;4.10;2.45;;;;;;;-140.72;100.00;53103.16;5129699;27;20030;-69
2023/01/02 03:31:36;;;;;;;5.95;3.55;;;;;;;-140.72;100.00;53054.44;5127907;27;20026;-69
2023/01/02 03:34:20;;;;;;;8.88;3.33;;;;;;;-140.72;100.00;53078.78;5118469;27;20197;-69
2023/01/02 03:36:51;;;;;;;3.83;2.85;;;;;;;-140.72;100.00;53095.03;5124418;27;20443;-69
2023/01/02 03:39:19;;;;;;;7.72;3.60;;;;;;;-140.72;100.00;53068.66;5125232;27;20353;-69
2023/01/02 03:42:09;;;;;;;9.93;3.38;;;;;;;-140.72;100.00;53046.31;5128010;27;20015;-69
2023/01/02 03:45:08;;;;;;;8.40;3.28;;;;;;;-140.72;100.00;53058.50;5126760;27;20007;-69
2023/01/02 03:47:39;;;;;;;4.40;2.38;;;;;;;-140.72;100.00;53060.53;5126024;27;20028;-68
2023/01/02 03:50:20;;;;;;;4.57;2.70;;;;;;;-140.72;100.00;53050.38;5128089;27;20026;-69
2023/01/02 03:52:46;;;;;;;4.75;2.80;;;;;;;-140.72;100.00;53072.69;5128547;27;20047;-71
2023/01/02 03:55:12;;;;;;;4.22;2.80;;;;;;;-140.72;100.00;53080.81;5129021;27;20046;-69
2023/01/02 03:57:43;;;;;;;5.13;2.58;;;;;;;-140.72;100.00;53060.53;5129372;27;20015;-69
2023/01/02 04:00:15;;;;;;;5.25;2.63;;;;;;;-140.72;100.00;53088.94;5128873;27;20022;-71
2023/01/02 04:02:59;;;;;;;6.43;3.30;;;;;;;-140.72;100.00;53042.25;5128122;27;20018;-69
2023/01/02 04:05:39;;;;;;;6.00;2.50;;;;;;;-140.72;100.00;53086.91;5129113;27;20051;-73
2023/01/02 04:08:10;;;;;;;6.78;3.15;;;;;;;-140.72;100.00;53050.38;5130074;27;20019;-69
2023/01/02 04:10:37;;;;;;;5.68;2.92;;;;;;;-140.72;100.00;53060.53;5128710;27;20032;-69
2023/01/02 04:13:09;;;;;;;4.45;2.70;;;;;;;-140.72;100.00;53088.94;5129400;27;20106;-72
2023/01/02 04:15:37;;;;;;;6.55;2.95;;;;;;;-140.72;100.00;53093.00;5113050;27;20023;-73
2023/01/02 04:18:10;;;;;;;7.03;3.13;;;;;;;-140.72;100.00;53015.88;5123282;27;20020;-71
2023/01/02 04:20:41;;;;;;;4.72;2.15;;;;;;;-140.72;100.00;53032.13;5117651;27;20027;-69
2023/01/02 04:23:15;;;;;;;5.35;2.92;;;;;;;-140.72;100.00;53052.41;5122566;27;20027;-70
2023/01/02 04:25:56;;;;;;;10.48;3.10;;;;;;;-140.72;100.00;53060.53;5117468;27;20278;-70
2023/01/02 04:28:25;;;;;;;4.50;2.60;;;;;;;-140.72;100.00;53044.28;5117900;27;20050;-69
2023/01/02 04:31:04;;;;;;;7.57;3.40;;;;;;;-140.72;100.00;53084.88;5125256;27;20026;-70
2023/01/02 04:33:33;;;;;;;5.80;3.22;;;;;;;-140.72;100.00;53088.94;5119047;28;20027;-70
2023/01/02 04:36:06;;;;;;;6.93;3.53;;;;;;;-140.72;100.00;53062.56;5124651;28;20058;-69
2023/01/02 04:38:32;;;;;;;4.07;2.45;;;;;;;-140.72;100.00;53060.53;5129840;28;20051;-72
2023/01/02 04:40:57;;;;;;;7.55;3.83;;;;;;;-140.72;100.00;53080.81;5127049;28;20468;-71
2023/01/02 04:43:22;;;;;;;5.28;3.35;;;;;;;-140.72;100.00;53048.34;5119061;28;20030;-68
2023/01/02 04:45:49;;;;;;;5.32;4.10;;;;;;;-140.72;100.00;53084.88;5126630;28;20019;-69
2023/01/02 04:48:15;;;;;;;5.28;4.22;;;;;;;-140.72;100.00;53044.28;5118487;28;20085;-70
2023/01/02 04:50:41;;;;;;;3.88;3.05;;;;;;;-140.72;100.00;53086.91;5108786;28;20019;-71
2023/01/02 04:53:08;;;;;;;3.58;1.90;;;;;;;-140.72;100.00;53123.44;5121261;28;20049;-69
2023/01/02 04:55:33;;;;;;;2.67;1.80;;;;;;;-140.72;100.00;53117.34;5123576;28;20211;-69
2023/01/02 04:57:59;;;;;;;3.63;1.17;;;;;;;-140.72;100.00;53119.38;5109355;28;20124;-69
2023/01/02 05:00:24;;;;;;;3.35;0.95;;;;;;;-140.72;100.00;53155.91;5120031;27;20042;-70
2023/01/02 05:02:50;;;;;;;2.45;1.30;;;;;;;-140.72;100.00;53164.03;5122292;27;20395;-68
2023/01/02 05:05:16;;;;;;;1.20;0.73;;;;;;;-140.72;100.00;53119.38;5125787;27;20106;-70
2023/01/02 05:07:41;;;;;;;2.58;1.70;;;;;;;-140.72;100.00;53072.69;5113252;27;20114;-69
2023/01/02 05:10:07;;;;;;;2.33;1.63;;;;;;;-140.72;100.00;53088.94;5116152;27;20108;-68
2023/01/02 05:12:34;;;;;;;1.88;1.25;;;;;;;-140.72;100.00;53105.19;5125182;27;20035;-69
2023/01/02 05:15:00;;;;;;;2.70;0.82;;;;;;;-140.72;100.00;53147.78;5133201;27;20024;-69
2023/01/02 05:17:25;;;;;;;2.00;0.90;;;;;;;-140.72;100.00;53093.00;5125197;27;20055;-70
2023/01/02 05:19:50;;;;;;;2.80;1.23;;;;;;;-140.72;100.00;53111.25;5126054;27;20026;-72
2023/01/02 05:24:59;;;;;;;1.13;0.80;;;;;;;-140.72;100.00;53113.28;5127466;27;20157;-68
2023/01/02 05:27:24;;;;;;;2.40;1.13;;;;;;;-140.72;100.00;53121.41;5129483;27;20057;-68
2023/01/02 05:29:50;;;;;;;1.73;1.10;;;;;;;-140.72;100.00;53103.16;5131672;27;20023;-70
2023/01/02 05:32:15;;;;;;;2.25;1.17;;;;;;;-140.72;100.00;53095.03;5121268;27;20467;-69
2023/01/02 05:34:40;;;;;;;2.10;1.00;;;;;;;-140.72;100.00;53149.81;5118426;27;20442;-69
2023/01/02 05:37:06;;;;;;;2.42;1.25;;;;;;;-140.72;100.00;53162.00;5120886;27;20051;-68
2023/01/02 05:39:31;;;;;;;2.13;1.30;;;;;;;-140.72;100.00;53133.59;5129327;27;20028;-69
2023/01/02 05:41:56;;;;;;;2.33;1.42;;;;;;;-140.72;100.00;53088.94;5132483;27;20053;-69
2023/01/02 05:44:22;;;;;;;2.63;1.67;;;;;;;-140.72;100.00;53129.53;5131645;27;20023;-68
2023/01/02 05:46:47;;;;;;;4.32;1.60;;;;;;;-140.72;100.00;53125.47;5133033;27;20027;-68
2023/01/02 05:49:12;;;;;;;2.85;2.15;;;;;;;-140.72;100.00;53147.78;5130419;27;20282;-68
2023/01/02 05:51:38;;;;;;;3.33;1.92;;;;;;;-140.72;100.00;53113.28;5130085;27;20129;-68
2023/01/02 05:54:04;;;;;;;3.13;2.15;;;;;;;-140.72;100.00;53115.31;5118387;27;20664;-70
2023/01/02 05:56:30;;;;;;;4.00;2.45;;;;;;;-140.72;100.00;53117.34;5120790;27;20020;-69
2023/01/02 05:58:56;;;;;;;3.97;2.55;;;;;;;-140.72;100.00;53119.38;5125970;27;20119;-71
2023/01/02 06:01:27;;;;;;;4.32;2.58;;;;;;;-140.72;100.00;53162.00;5127809;27;20083;-69
2023/01/02 06:03:58;;;;;;;4.10;2.55;;;;;;;-140.72;100.00;53157.94;5121483;27;20018;-68
2023/01/02 06:06:28;;;;;;;5.13;2.65;;;;;;;-140.72;100.00;53113.28;5130425;27;20015;-68
2023/01/02 06:08:53;;;;;;;3.72;2.85;;;;;;;-140.72;100.00;53149.81;5124948;27;20019;-68
2023/01/02 06:11:19;;;;;;;4.45;3.13;;;;;;;-140.72;100.00;53113.28;5130080;27;20407;-69
2023/01/02 06:13:44;;;;;;;6.38;3.88;;;;;;;-140.72;100.00;53182.28;5124321;27;20129;-69
2023/01/02 06:16:10;;;;;;;7.32;3.72;;;;;;;-140.72;100.00;53109.22;5128888;27;20030;-70
2023/01/02 06:18:37;;;;;;;6.70;3.55;;;;;;;-140.72;100.00;53117.34;5122912;27;20053;-71
2023/01/02 06:21:08;;;;;;;5.63;3.05;;;;;;;-140.72;100.00;53147.78;5127925;27;20046;-70
2023/01/02 06:23:34;;;;;;;4.65;3.25;;;;;;;-140.72;100.00;53109.22;5128723;27;20026;-69
2023/01/02 06:26:10;;;;;;;7.30;3.40;;;;;;;-140.72;100.00;53129.53;5125465;27;20019;-72
2023/01/02 06:28:37;;;;;;;5.25;2.70;;;;;;;-140.72;100.00;53097.06;5127284;27;20034;-69
2023/01/02 06:31:04;;;;;;;3.92;2.75;;;;;;;-140.72;100.00;53125.47;5124663;27;20031;-70
2023/01/02 06:33:30;;;;;;;4.80;3.10;;;;;;;-140.72;100.00;53149.81;5125595;27;20027;-70
2023/01/02 06:36:03;;;;;;;3.08;1.73;;;;;;;-140.72;100.00;53153.88;5128086;27;20106;-69
2023/01/02 06:38:29;;;;;;;2.40;0.85;;;;;;;-140.72;100.00;53149.81;5122842;27;20290;-69
2023/01/02 06:40:56;;;;;;;3.20;0.90;;;;;;;-140.72;100.00;53125.47;5127020;27;20366;-69
2023/01/02 06:43:23;;;;;;;3.20;1.63;;;;;;;-140.72;100.00;53139.69;5129281;27;20514;-69
2023/01/02 06:45:49;;;;;;;2.22;1.20;;;;;;;-140.72;100.00;53076.75;5129981;27;20084;-69
2023/01/02 06:48:15;;;;;;;2.38;1.08;;;;;;;-140.72;100.00;53097.06;5128311;27;20019;-72
2023/01/02 06:50:41;;;;;;;2.90;1.00;;;;;;;-140.72;100.00;53143.72;5126248;27;20110;-70
2023/01/02 06:53:06;;;;;;;3.95;1.45;;;;;;;-140.72;100.00;53129.53;5126498;27;20050;-72
2023/01/02 06:55:31;;;;;;;3.42;1.40;;;;;;;-140.72;100.00;53113.28;5125597;27;20019;-69
2023/01/02 06:57:57;;;;;;;4.85;1.23;;;;;;;-140.72;100.00;53123.44;5127101;27;20122;-69
2023/01/02 07:00:22;;;;;;;4.20;1.42;;;;;;;-140.72;100.00;53125.47;5123481;27;20114;-68
2023/01/02 07:02:48;;;;;;;3.13;1.05;;;;;;;-140.72;100.00;53109.22;5126500;27;20023;-69
2023/01/02 07:05:13;;;;;;;2.20;0.93;;;;;;;-140.72;100.00;53139.69;5128679;27;20023;-69
2023/01/02 07:07:39;;;;;;;5.03;1.20;;;;;;;-140.72;100.00;53121.41;5127318;27;20026;-70
2023/01/02 07:10:05;;;;;;;3.72;1.08;;;;;;;-140.72;100.00;53097.06;5130468;27;21229;-72
2023/01/02 07:12:34;;;;;;;2.47;1.55;;;;;;;-140.72;100.00;53147.78;5125600;27;20045;-69
2023/01/02 07:14:59;;;;;;;5.80;1.95;;;;;;;-140.72;100.00;53157.94;5125109;27;20054;-69
2023/01/02 07:17:24;;;;;;;4.32;1.75;;;;;;;-140.72;100.00;53157.94;5128114;27;20066;-69
2023/01/02 07:19:50;;;;;;;3.50;1.77;;;;;;;-140.72;100.00;53149.81;5127005;27;20051;-69
2023/01/02 07:22:15;;;;;;;6.85;2.28;;;;;;;-140.72;100.00;53166.06;5131387;27;20533;-70
2023/01/02 07:24:41;;;;;;;4.97;2.50;;;;;;;-140.72;100.00;53147.78;5125857;27;20054;-69
2023/01/02 07:27:07;;;;;;;6.28;2.35;;;;;;;-140.72;100.00;53170.13;5128518;27;20314;-69
2023/01/02 07:29:32;;;;;;;3.08;1.80;;;;;;;-140.72;100.00;53157.94;5126438;27;20110;-70
2023/01/02 07:31:58;;;;;;;5.05;2.60;;;;;;;-140.72;100.00;53198.53;5111349;27;20111;-69
2023/01/02 07:34:26;;;;;;;4.55;2.40;;;;;;;-140.72;100.00;53162.00;5124744;27;20019;-69
2023/01/02 07:36:51;;;;;;;7.63;3.05;;;;;;;-140.72;100.00;53176.22;5128577;27;20027;-69
2023/01/02 07:39:17;;;;;;;5.63;2.65;;;;;;;-140.72;100.00;53121.41;5128780;27;20249;-69
2023/01/02 07:41:42;;;;;;;8.27;4.90;;;;;;;-140.72;100.00;53137.66;5124029;27;20067;-69
2023/01/02 07:44:08;;;;;;;4.97;3.35;;;;;;;-140.72;100.00;53157.94;5128218;27;20027;-70
2023/01/02 07:46:33;;;;;;;4.70;3.25;;;;;;;-140.72;100.00;53166.06;5129680;27;20034;-69
2023/01/02 07:48:58;;;;;;;7.45;4.47;;;;;;;-140.72;100.00;53139.69;5126909;27;20102;-71
2023/01/02 07:51:24;;;;;;;6.90;4.13;;;;;;;-140.72;100.00;53162.00;5129958;27;20340;-69
2023/01/02 07:53:49;;;;;;;6.60;2.63;;;;;;;-140.72;100.00;53139.69;5123853;28;20292;-69
2023/01/02 07:56:14;;;;;;;6.50;2.90;;;;;;;-140.72;100.00;53149.81;5127369;28;20297;-69
2023/01/02 07:58:40;;;;;;;3.55;2.58;;;;;;;-140.72;100.00;53147.78;5125751;28;20049;-69
2023/01/02 08:01:11;;;;;;;3.83;2.17;;;;;;;-140.72;100.00;53157.94;5126937;28;20141;-70
2023/01/02 08:03:37;;;;;;;4.10;1.67;;;;;;;-140.72;100.00;53133.59;5117120;28;20027;-71
2023/01/02 08:06:10;;;;;;;2.78;1.48;;;;;;;-140.72;100.00;53159.97;5125595;28;20019;-70
2023/01/02 08:08:36;;;;;;;1.58;0.85;;;;;;;-140.72;100.00;53095.03;5127493;28;20063;-70
2023/01/02 08:11:07;;;;;;;4.20;1.23;;;;;;;-140.72;100.00;53125.47;5126240;28;20114;-73
2023/01/02 08:13:33;;;;;;;2.88;0.95;;;;;;;-140.72;100.00;53168.09;5124231;28;20062;-72
2023/01/02 08:16:04;;;;;;;2.53;1.33;;;;;;;-140.72;100.00;53178.22;5119609;28;20057;-70
2023/01/02 08:18:31;;;;;;;2.25;1.00;;;;;;;-140.72;100.00;53168.09;5121086;28;20069;-70
2023/01/02 08:20:56;;;;;;;2.05;0.82;;;;;;;-140.72;100.00;53151.84;5127767;28;20370;-70
2023/01/02 08:23:21;;;;;;;2.20;1.38;;;;;;;-140.72;100.00;53162.00;5123997;28;20019;-71
2023/01/02 08:25:47;;;;;;;1.50;0.40;;;;;;;-140.72;100.00;53145.75;5126732;28;20114;-73
2023/01/02 08:28:12;;;;;;;2.53;0.73;;;;;;;-140.72;100.00;53139.69;5120788;28;20062;-70
2023/01/02 08:30:40;;;;;;;1.58;0.73;;;;;;;-140.72;100.00;53162.00;5126455;28;20095;-72
2023/01/02 08:33:06;;;;;;;3.90;0.80;;;;;;;-140.72;100.00;53117.34;5120406;28;20122;-70
2023/01/02 08:35:31;;;;;;;1.75;0.60;;;;;;;-140.72;100.00;53133.59;5128414;28;20109;-70
2023/01/02 08:37:57;;;;;;;1.55;0.77;;;;;;;-140.72;100.00;53153.88;5125647;28;20019;-73
2023/01/02 08:40:22;;;;;;;2.65;0.40;;;;;;;-140.72;100.00;53155.91;5129080;28;20390;-70
2023/01/02 08:42:49;;;;;;;5.70;0.80;;;;;;;-140.72;100.00;53157.94;5126702;28;20063;-70
2023/01/02 08:45:15;;;;;;;1.00;0.40;;;;;;;-140.72;100.00;53143.72;5127261;28;20011;-71
2023/01/02 08:47:40;;;;;;;0.32;0.25;;;;;;;-140.72;100.00;53186.34;5129450;28;20094;-70
2023/01/02 08:50:05;;;;;;;1.20;0.63;;;;;;;-140.72;100.00;53143.72;5129924;28;20030;-70
2023/01/02 08:52:31;;;;;;;2.42;1.15;;;;;;;-140.72;100.00;53164.03;5070334;28;1110136;-71
2023/01/02 08:54:56;;;;;;;5.35;0.57;;;;;;;-140.72;100.00;53139.69;5115124;28;20027;-71
2023/01/02 08:57:22;;;;;;;1.65;0.50;;;;;;;-140.72;100.00;53111.25;5123306;28;20028;-71
2023/01/02 08:59:47;;;;;;;1.58;0.73;;;;;;;-140.72;100.00;53151.84;5118347;28;20098;-71
2023/01/02 09:02:14;;;;;;;3.85;1.25;;;;;;;-140.72;100.00;53109.22;5113004;28;20404;-71
2023/01/02 09:04:40;;;;;;;4.40;0.57;;;;;;;-140.72;100.00;53123.44;5123123;28;20073;-74
2023/01/02 09:07:06;;;;;;;4.65;1.23;;;;;;;-140.72;100.00;53141.69;5115185;28;20478;-69
2023/01/02 09:09:32;;;;;;;0.98;0.47;;;;;;;-140.72;100.00;53125.47;5119277;28;20403;-67
2023/01/02 09:11:58;;;;;;;1.45;0.50;;;;;;;-140.72;100.00;53168.09;5115177;28;20023;-69
2023/01/02 09:14:23;;;;;;;4.25;0.63;;;;;;;-140.72;100.00;53145.75;5123879;28;20031;-68
2023/01/02 09:16:50;;;;;;;0.93;0.50;;;;;;;-140.72;100.00;53125.47;5120345;28;20358;-70
2023/01/02 09:19:16;;;;;;;1.77;0.43;;;;;;;-140.72;100.00;53182.28;5129496;28;20625;-68
2023/01/02 09:21:41;;;;;;;0.98;0.68;;;;;;;-140.72;100.00;53153.88;5124069;28;20020;-68
2023/01/02 09:24:07;;;;;;;1.35;0.52;;;;;;;-140.72;100.00;53166.06;5124787;28;20046;-71
2023/01/02 09:26:33;;;;;;;7.60;0.77;;;;;;;-140.72;100.00;53164.03;5122805;28;20039;-71
2023/01/02 09:28:59;;;;;;;1.98;0.68;;;;;;;-140.72;100.00;53166.06;5125801;28;20031;-68
2023/01/02 09:31:24;;;;;;;1.30;0.68;;;;;;;-140.72;100.00;53166.06;5126507;28;20486;-68
2023/01/02 09:33:52;;;;;;;2.88;0.98;;;;;;;-140.72;100.00;53170.13;5126419;28;20027;-69
2023/01/02 09:36:18;;;;;;;1.33;0.60;;;;;;;-140.72;100.00;53133.59;5125530;28;20060;-69
2023/01/02 09:38:49;;;;;;;4.28;0.80;;;;;;;-140.72;100.00;53125.47;5111988;28;20035;-70
2023/01/02 09:41:26;;;;;;;3.00;0.85;;;;;;;-140.72;100.00;53129.53;5117999;28;20030;-69
2023/01/02 09:43:54;;;;;;;3.78;0.55;;;;;;;-140.72;100.00;53141.69;5120527;28;20027;-68
2023/01/02 09:46:40;;;;;;;6.35;0.57;;;;;;;-140.72;100.00;53149.81;5125543;27;20119;-69
2023/01/02 09:49:12;;;;;;;1.45;0.57;;;;;;;-140.72;100.00;53139.69;5108030;27;20165;-71
2023/01/02 09:51:37;;;;;;;2.47;0.63;;;;;;;-140.72;100.00;53149.81;5128425;27;20458;-68
2023/01/02 09:54:05;;;;;;;3.03;0.80;;;;;;;-140.72;100.00;53149.81;5130735;27;20046;-69
2023/01/02 09:56:37;;;;;;;2.50;0.50;;;;;;;-140.72;100.00;53164.03;5132312;27;20719;-71
2023/01/02 09:59:08;;;;;;;6.65;0.70;;;;;;;-140.72;100.00;53105.19;5127885;27;20026;-68
2023/01/02 10:01:43;;;;;;;2.95;0.82;;;;;;;-140.72;100.00;53143.72;5129982;27;20027;-69
2023/01/02 10:04:14;;;;;;;3.72;0.63;;;;;;;-140.72;100.00;53119.38;5131306;27;20035;-68
2023/01/02 10:06:58;;;;;;;2.65;0.38;;;;;;;-140.72;100.00;53135.63;5129794;27;20086;-68
2023/01/02 10:09:45;;;;;;;1.98;0.82;;;;;;;-140.72;100.00;53133.59;5119281;27;20061;-69
2023/01/02 10:12:10;;;;;;;1.85;0.60;;;;;;;-140.72;100.00;53097.06;5120464;27;20027;-68
2023/01/02 10:14:53;;;;;;;0.75;0.38;;;;;;;-140.72;100.00;53113.28;5120855;27;20035;-69
2023/01/02 10:17:19;;;;;;;1.20;0.35;;;;;;;-140.72;100.00;53133.59;5125528;27;20117;-71
2023/01/02 10:19:54;;;;;;;5.35;0.60;;;;;;;-140.72;100.00;53135.63;5124024;27;20130;-69
2023/01/02 10:22:30;;;;;;;3.78;0.52;;;;;;;-140.72;100.00;53078.78;5122990;27;20060;-68
2023/01/02 10:25:21;;;;;;;2.92;1.05;;;;;;;-140.72;100.00;53103.16;5124831;27;20023;-68
2023/01/02 10:27:55;;;;;;;1.13;0.68;;;;;;;-140.72;100.00;53093.00;5122356;27;20023;-67
2023/01/02 10:30:25;;;;;;;3.22;0.60;;;;;;;-140.72;100.00;53076.75;5121746;27;20032;-68
2023/01/02 10:33:08;;;;;;;1.15;0.40;;;;;;;-140.72;100.00;53095.03;5113679;27;20358;-68
2023/01/02 10:35:40;;;;;;;0.47;0.40;;;;;;;-140.72;100.00;53121.41;5115785;27;20031;-67
2023/01/02 10:38:09;;;;;;;3.63;0.75;;;;;;;-140.72;100.00;53064.59;5125697;27;20027;-68
2023/01/02 10:40:36;;;;;;;1.08;0.60;;;;;;;-140.72;100.00;53119.38;5121241;27;20042;-68
2023/01/02 10:43:02;;;;;;;2.92;0.60;;;;;;;-140.72;100.00;53113.28;5124098;27;20023;-68
2023/01/02 10:45:28;;;;;;;2.67;0.80;;;;;;;-140.72;100.00;53095.03;5121497;27;20073;-68
2023/01/02 10:47:53;;;;;;;4.97;0.95;;;;;;;-140.72;100.00;53082.84;5118588;27;20039;-67
2023/01/02 10:50:26;;;;;;;4.63;1.25;;;;;;;-140.72;100.00;53115.31;5125441;27;20050;-67
2023/01/02 10:53:03;;;;;;;2.55;0.75;;;;;;;-140.72;100.00;53101.13;5114204;27;20294;-67
2023/01/02 10:55:37;;;;;;;0.80;0.50;;;;;;;-140.72;100.00;53080.81;5121684;27;20047;-68
2023/01/02 10:58:05;;;;;;;5.10;0.65;;;;;;;-140.72;100.00;53093.00;5115119;27;20015;-70
2023/01/02 11:00:33;;;;;;;2.47;0.75;;;;;;;-140.72;100.00;53123.44;5116833;27;20201;-67
2023/01/02 11:03:04;;;;;;;1.42;0.57;;;;;;;-140.72;100.00;53109.22;5119423;27;20098;-69
2023/01/02 11:05:30;;;;;;;1.73;0.77;;;;;;;-140.72;100.00;53088.94;5123292;27;20370;-68
2023/01/02 11:07:57;;;;;;;3.15;0.80;;;;;;;-140.72;100.00;53135.63;5116198;27;20029;-67
2023/01/02 11:10:26;;;;;;;6.72;0.85;;;;;;;-140.72;100.00;53105.19;5119305;27;20024;-68
2023/01/02 11:12:52;;;;;;;2.60;0.88;;;;;;;-140.72;100.00;53121.41;5129969;27;20023;-69
2023/01/02 11:15:35;;;;;;;4.20;1.38;;;;;;;-140.72;100.00;53113.28;5116374;27;20188;-69
2023/01/02 11:18:02;;;;;;;2.00;0.63;;;;;;;-140.72;100.00;53097.06;5122603;27;20427;-69
2023/01/02 11:20:36;;;;;;;2.13;0.98;;;;;;;-140.72;100.00;53125.47;5119188;27;20045;-69